sensor_id;sensor_type;location;lat;lon;timestamp;pressure;altitude;pressure_sealevel;temperature;humidity
76046;BME280;64741;41.730;44.788;2023-08-07T00:00:59;984.7;;;31.5;39.4
76046;BME280;64741;41.730;44.788;2023-08-07T00:05:53;984.7;;;31.5;39.6
76046;BME280;64741;41.730;44.788;2023-08-07T00:11:00;984.7;;;31.5;39.5
76046;BME280;64741;41.730;44.788;2023-08-07T00:15:59;984.7;;;31.5;39.5
76046;BME280;64741;41.730;44.788;2023-08-07T00:20:59;984.7;;;31.5;39.4
76046;BME280;64741;41.730;44.788;2023-08-07T00:25:53;984.7;;;31.5;39.5
76046;BME280;64741;41.730;44.788;2023-08-07T00:30:59;984.7;;;31.5;39.3
76046;BME280;64741;41.730;44.788;2023-08-07T00:35:59;984.6;;;31.4;39.1
76046;BME280;64741;41.730;44.788;2023-08-07T00:40:59;984.6;;;31.4;39.4
76046;BME280;64741;41.730;44.788;2023-08-07T00:45:53;984.6;;;31.4;39.4
76046;BME280;64741;41.730;44.788;2023-08-07T00:50:53;984.5;;;31.4;39.3
76046;BME280;64741;41.730;44.788;2023-08-07T00:55:53;984.5;;;31.4;39.1
76046;BME280;64741;41.730;44.788;2023-08-07T01:00:53;984.5;;;31.3;39.1
76046;BME280;64741;41.730;44.788;2023-08-07T01:05:59;984.5;;;31.3;39.1
76046;BME280;64741;41.730;44.788;2023-08-07T01:10:43;984.6;;;31.3;39.3
76046;BME280;64741;41.730;44.788;2023-08-07T01:16:01;984.6;;;31.3;39.1
76046;BME280;64741;41.730;44.788;2023-08-07T01:20:53;984.5;;;31.3;38.9
76046;BME280;64741;41.730;44.788;2023-08-07T01:25:53;984.5;;;31.3;38.8
76046;BME280;64741;41.730;44.788;2023-08-07T01:31:01;984.6;;;31.3;38.7
76046;BME280;64741;41.730;44.788;2023-08-07T01:36:01;984.6;;;31.2;38.8
76046;BME280;64741;41.730;44.788;2023-08-07T01:41:00;984.6;;;31.3;39
76046;BME280;64741;41.730;44.788;2023-08-07T01:45:53;984.6;;;31.2;39
76046;BME280;64741;41.730;44.788;2023-08-07T01:50:59;984.6;;;31.2;38.9
76046;BME280;64741;41.730;44.788;2023-08-07T01:55:59;984.5;;;31.1;38.9
76046;BME280;64741;41.730;44.788;2023-08-07T02:00:52;984.5;;;31.2;38.8
76046;BME280;64741;41.730;44.788;2023-08-07T02:05:53;984.5;;;31.2;38.7
76046;BME280;64741;41.730;44.788;2023-08-07T02:10:59;984.6;;;31.2;38.6
76046;BME280;64741;41.730;44.788;2023-08-07T02:15:49;984.6;;;31.1;38.4
76046;BME280;64741;41.730;44.788;2023-08-07T02:20:37;984.6;;;31.1;38.5
76046;BME280;64741;41.730;44.788;2023-08-07T02:25:59;984.6;;;31.1;38.6
76046;BME280;64741;41.730;44.788;2023-08-07T02:30:59;984.6;;;31.1;38.5
76046;BME280;64741;41.730;44.788;2023-08-07T02:35:59;984.6;;;31.1;38.5
76046;BME280;64741;41.730;44.788;2023-08-07T02:40:53;984.6;;;31.1;38.5
76046;BME280;64741;41.730;44.788;2023-08-07T02:45:53;984.6;;;31.1;38.5
76046;BME280;64741;41.730;44.788;2023-08-07T02:50:59;984.6;;;31.1;38.7
76046;BME280;64741;41.730;44.788;2023-08-07T02:55:53;984.6;;;31.1;38.8
76046;BME280;64741;41.730;44.788;2023-08-07T03:01:02;984.6;;;31.1;38.7
76046;BME280;64741;41.730;44.788;2023-08-07T03:05:48;984.5;;;31.1;38.7
76046;BME280;64741;41.730;44.788;2023-08-07T03:10:59;984.5;;;31.1;38.6
76046;BME280;64741;41.730;44.788;2023-08-07T03:16:00;984.4;;;31.1;38.5
76046;BME280;64741;41.730;44.788;2023-08-07T03:21:00;984.5;;;31.1;38.6
76046;BME280;64741;41.730;44.788;2023-08-07T03:26:01;984.5;;;31;38.6
76046;BME280;64741;41.730;44.788;2023-08-07T03:30:53;984.5;;;30.9;38.5
76046;BME280;64741;41.730;44.788;2023-08-07T03:35:59;984.4;;;30.9;38.6
76046;BME280;64741;41.730;44.788;2023-08-07T03:40:51;984.4;;;30.9;38.5
76046;BME280;64741;41.730;44.788;2023-08-07T03:45:59;984.4;;;30.8;38.2
76046;BME280;64741;41.730;44.788;2023-08-07T03:51:01;984.4;;;30.8;38.5
76046;BME280;64741;41.730;44.788;2023-08-07T03:55:53;984.4;;;30.8;38.3
76046;BME280;64741;41.730;44.788;2023-08-07T04:00:59;984.4;;;30.8;38.3
76046;BME280;64741;41.730;44.788;2023-08-07T04:05:59;984.4;;;30.8;38.4
76046;BME280;64741;41.730;44.788;2023-08-07T04:11:00;984.3;;;30.8;38.3
76046;BME280;64741;41.730;44.788;2023-08-07T04:15:51;984.3;;;30.8;38.1
76046;BME280;64741;41.730;44.788;2023-08-07T04:20:59;984.2;;;30.8;38.2
76046;BME280;64741;41.730;44.788;2023-08-07T04:25:59;984.1;;;30.8;38.1
76046;BME280;64741;41.730;44.788;2023-08-07T04:30:52;984.1;;;30.8;38
76046;BME280;64741;41.730;44.788;2023-08-07T04:35:22;984;;;30.8;38.3
76046;BME280;64741;41.730;44.788;2023-08-07T04:40:59;984;;;30.8;38.3
76046;BME280;64741;41.730;44.788;2023-08-07T04:45:37;983.9;;;30.8;38.1
76046;BME280;64741;41.730;44.788;2023-08-07T04:50:51;983.9;;;30.8;38.1
76046;BME280;64741;41.730;44.788;2023-08-07T04:56:00;983.9;;;30.9;38.1
76046;BME280;64741;41.730;44.788;2023-08-07T05:00:28;983.9;;;30.9;38.2
76046;BME280;64741;41.730;44.788;2023-08-07T05:06:00;983.8;;;30.9;38.3
76046;BME280;64741;41.730;44.788;2023-08-07T05:10:48;983.7;;;30.9;38.3
76046;BME280;64741;41.730;44.788;2023-08-07T05:15:53;983.7;;;30.9;38.4
76046;BME280;64741;41.730;44.788;2023-08-07T05:20:53;983.7;;;30.9;38.3
76046;BME280;64741;41.730;44.788;2023-08-07T05:25:54;983.6;;;30.9;38.2
76046;BME280;64741;41.730;44.788;2023-08-07T05:30:16;983.6;;;31;38.2
76046;BME280;64741;41.730;44.788;2023-08-07T05:35:53;983.6;;;31;37.9
76046;BME280;64741;41.730;44.788;2023-08-07T05:40:54;983.5;;;31;37.8
76046;BME280;64741;41.730;44.788;2023-08-07T05:45:48;983.6;;;31;37.5
76046;BME280;64741;41.730;44.788;2023-08-07T05:50:52;983.5;;;31;37.5
76046;BME280;64741;41.730;44.788;2023-08-07T05:55:51;983.4;;;31;37.6
76046;BME280;64741;41.730;44.788;2023-08-07T06:01:00;983.4;;;31.1;37.7
76046;BME280;64741;41.730;44.788;2023-08-07T06:05:42;983.3;;;31.1;37.8
76046;BME280;64741;41.730;44.788;2023-08-07T06:10:53;983.3;;;31.1;37.8
76046;BME280;64741;41.730;44.788;2023-08-07T06:16:00;983.2;;;31.2;38
76046;BME280;64741;41.730;44.788;2023-08-07T06:20:58;983.1;;;31.2;37.8
76046;BME280;64741;41.730;44.788;2023-08-07T06:25:52;983;;;31.2;37.7
76046;BME280;64741;41.730;44.788;2023-08-07T06:30:59;983;;;31.2;37.8
76046;BME280;64741;41.730;44.788;2023-08-07T06:36:00;982.9;;;31.3;37.7
76046;BME280;64741;41.730;44.788;2023-08-07T06:40:58;982.9;;;31.3;37.7
76046;BME280;64741;41.730;44.788;2023-08-07T06:45:52;982.9;;;31.3;38
76046;BME280;64741;41.730;44.788;2023-08-07T06:50:42;982.7;;;31.3;38.1
76046;BME280;64741;41.730;44.788;2023-08-07T06:55:58;982.7;;;31.4;38.1
76046;BME280;64741;41.730;44.788;2023-08-07T07:01:00;982.7;;;31.4;38
76046;BME280;64741;41.730;44.788;2023-08-07T07:05:54;982.6;;;31.4;38
76046;BME280;64741;41.730;44.788;2023-08-07T07:10:54;982.6;;;31.4;37.8
76046;BME280;64741;41.730;44.788;2023-08-07T07:16:00;982.6;;;31.4;37.6
76046;BME280;64741;41.730;44.788;2023-08-07T07:20:57;982.6;;;31.5;37.2
76046;BME280;64741;41.730;44.788;2023-08-07T07:25:58;982.5;;;31.5;37
76046;BME280;64741;41.730;44.788;2023-08-07T07:30:54;982.5;;;31.5;37
76046;BME280;64741;41.730;44.788;2023-08-07T07:35:56;982.4;;;31.5;36.9
76046;BME280;64741;41.730;44.788;2023-08-07T07:40:58;982.4;;;31.5;36.7
76046;BME280;64741;41.730;44.788;2023-08-07T07:45:42;982.4;;;31.5;36.1
76046;BME280;64741;41.730;44.788;2023-08-07T07:51:00;982.3;;;31.6;35.9
76046;BME280;64741;41.730;44.788;2023-08-07T07:55:54;982.2;;;31.6;35.9
76046;BME280;64741;41.730;44.788;2023-08-07T08:01:00;982.2;;;31.6;36
76046;BME280;64741;41.730;44.788;2023-08-07T08:05:54;982.1;;;31.6;36.2
76046;BME280;64741;41.730;44.788;2023-08-07T08:10:58;982.1;;;31.6;36.7
76046;BME280;64741;41.730;44.788;2023-08-07T08:15:54;982;;;31.6;37.4
76046;BME280;64741;41.730;44.788;2023-08-07T08:20:46;982;;;31.7;37.1
76046;BME280;64741;41.730;44.788;2023-08-07T08:25:58;982;;;31.7;36.9
76046;BME280;64741;41.730;44.788;2023-08-07T08:30:58;982;;;31.7;36.8
76046;BME280;64741;41.730;44.788;2023-08-07T08:35:58;982;;;31.7;36.3
76046;BME280;64741;41.730;44.788;2023-08-07T08:40:54;981.9;;;31.6;35
76046;BME280;64741;41.730;44.788;2023-08-07T11:30:54;980.5;;;31;37.6
76046;BME280;64741;41.730;44.788;2023-08-07T11:35:52;980.5;;;31.3;37.2
76046;BME280;64741;41.730;44.788;2023-08-07T11:40:59;980.5;;;31.6;36.9
76046;BME280;64741;41.730;44.788;2023-08-07T11:45:52;980.5;;;31.8;36.2
76046;BME280;64741;41.730;44.788;2023-08-07T11:50:56;980.5;;;32;35.6
76046;BME280;64741;41.730;44.788;2023-08-07T11:55:52;980.5;;;32.1;35.1
76046;BME280;64741;41.730;44.788;2023-08-07T12:00:58;980.5;;;32.2;34.8
76046;BME280;64741;41.730;44.788;2023-08-07T12:05:58;980.5;;;32.3;34.7
76046;BME280;64741;41.730;44.788;2023-08-07T12:10:58;980.6;;;32.3;34.4
76046;BME280;64741;41.730;44.788;2023-08-07T12:15:58;980.6;;;32.4;34.6
76046;BME280;64741;41.730;44.788;2023-08-07T12:20:56;980.6;;;32.4;34
76046;BME280;64741;41.730;44.788;2023-08-07T12:25:16;980.6;;;32.4;33.5
76046;BME280;64741;41.730;44.788;2023-08-07T12:30:50;980.6;;;32.4;33.1
76046;BME280;64741;41.730;44.788;2023-08-07T12:35:54;980.6;;;32.4;33.2
76046;BME280;64741;41.730;44.788;2023-08-07T12:40:52;980.7;;;32.4;33.6
76046;BME280;64741;41.730;44.788;2023-08-07T12:45:48;980.7;;;32.5;33.3
76046;BME280;64741;41.730;44.788;2023-08-07T12:50:54;980.7;;;32.5;33.8
76046;BME280;64741;41.730;44.788;2023-08-07T12:55:54;980.7;;;32.5;36.2
76046;BME280;64741;41.730;44.788;2023-08-07T13:00:52;980.7;;;32.6;34.5
76046;BME280;64741;41.730;44.788;2023-08-07T13:05:52;980.7;;;32.6;32.8
76046;BME280;64741;41.730;44.788;2023-08-07T13:10:54;980.6;;;32.6;31.7
76046;BME280;64741;41.730;44.788;2023-08-07T13:15:54;980.7;;;32.6;31
76046;BME280;64741;41.730;44.788;2023-08-07T13:20:56;980.6;;;32.7;30.6
76046;BME280;64741;41.730;44.788;2023-08-07T13:25:54;980.6;;;32.7;30.6
76046;BME280;64741;41.730;44.788;2023-08-07T13:30:54;980.6;;;32.7;29.9
76046;BME280;64741;41.730;44.788;2023-08-07T13:35:52;980.6;;;32.7;29.5
76046;BME280;64741;41.730;44.788;2023-08-07T13:40:52;980.5;;;32.8;29.7
76046;BME280;64741;41.730;44.788;2023-08-07T13:45:55;980.5;;;32.8;28.9
76046;BME280;64741;41.730;44.788;2023-08-07T13:50:48;980.6;;;32.8;29.4
76046;BME280;64741;41.730;44.788;2023-08-07T13:55:57;980.6;;;32.8;30
76046;BME280;64741;41.730;44.788;2023-08-07T14:00:38;980.7;;;32.9;30.7
76046;BME280;64741;41.730;44.788;2023-08-07T14:05:50;980.7;;;32.9;31
76046;BME280;64741;41.730;44.788;2023-08-07T14:10:54;980.8;;;32.9;31.1
76046;BME280;64741;41.730;44.788;2023-08-07T14:15:52;980.8;;;32.9;31.1
76046;BME280;64741;41.730;44.788;2023-08-07T14:20:54;980.8;;;32.9;31.5
76046;BME280;64741;41.730;44.788;2023-08-07T14:25:48;980.8;;;33;32
76046;BME280;64741;41.730;44.788;2023-08-07T14:30:48;980.9;;;33;32.3
76046;BME280;64741;41.730;44.788;2023-08-07T14:35:50;980.9;;;33;32.6
76046;BME280;64741;41.730;44.788;2023-08-07T14:40:48;980.9;;;33;33
76046;BME280;64741;41.730;44.788;2023-08-07T14:45:54;981;;;33;33.6
76046;BME280;64741;41.730;44.788;2023-08-07T14:50:54;981;;;33;34
76046;BME280;64741;41.730;44.788;2023-08-07T14:55:54;981.1;;;33;34.4
76046;BME280;64741;41.730;44.788;2023-08-07T15:00:48;981.1;;;33;34.7
76046;BME280;64741;41.730;44.788;2023-08-07T15:05:54;981.2;;;33;35
76046;BME280;64741;41.730;44.788;2023-08-07T15:10:54;981.3;;;33;35.2
76046;BME280;64741;41.730;44.788;2023-08-07T15:15:50;981.4;;;33;35.4
76046;BME280;64741;41.730;44.788;2023-08-07T15:20:54;981.6;;;33;35.7
76046;BME280;64741;41.730;44.788;2023-08-07T15:25:54;981.7;;;33;35.8
76046;BME280;64741;41.730;44.788;2023-08-07T15:30:54;981.8;;;33;35.9
76046;BME280;64741;41.730;44.788;2023-08-07T15:35:46;981.9;;;33;35.9
76046;BME280;64741;41.730;44.788;2023-08-07T15:40:54;981.9;;;33;35.9
76046;BME280;64741;41.730;44.788;2023-08-07T15:45:54;982;;;33;35.5
76046;BME280;64741;41.730;44.788;2023-08-07T15:50:54;982.1;;;33;34.6
76046;BME280;64741;41.730;44.788;2023-08-07T15:55:54;982.2;;;32.9;34.7
76046;BME280;64741;41.730;44.788;2023-08-07T16:00:50;982.3;;;32.9;35.1
76046;BME280;64741;41.730;44.788;2023-08-07T16:05:56;982.3;;;32.9;35.6
76046;BME280;64741;41.730;44.788;2023-08-07T16:10:40;982.4;;;32.9;35.9
76046;BME280;64741;41.730;44.788;2023-08-07T16:15:54;982.4;;;32.9;36.1
76046;BME280;64741;41.730;44.788;2023-08-07T16:20:50;982.6;;;32.9;36.8
76046;BME280;64741;41.730;44.788;2023-08-07T16:25:56;982.6;;;32.9;37.4
76046;BME280;64741;41.730;44.788;2023-08-07T16:30:54;982.8;;;32.9;38
76046;BME280;64741;41.730;44.788;2023-08-07T16:35:54;982.9;;;32.9;38.2
76046;BME280;64741;41.730;44.788;2023-08-07T16:40:56;983;;;32.9;38.5
76046;BME280;64741;41.730;44.788;2023-08-07T16:45:52;983;;;33;38.7
76046;BME280;64741;41.730;44.788;2023-08-07T16:50:56;983;;;33;38.9
76046;BME280;64741;41.730;44.788;2023-08-07T16:55:50;983.2;;;33;39.3
76046;BME280;64741;41.730;44.788;2023-08-07T17:00:56;983.2;;;33;39.2
76046;BME280;64741;41.730;44.788;2023-08-07T17:05:54;983.3;;;33;39.4
76046;BME280;64741;41.730;44.788;2023-08-07T17:10:52;983.4;;;33;39.5
76046;BME280;64741;41.730;44.788;2023-08-07T17:15:55;983.4;;;33;39.5
76046;BME280;64741;41.730;44.788;2023-08-07T17:20:58;983.4;;;33;39.7
76046;BME280;64741;41.730;44.788;2023-08-07T17:25:58;983.5;;;33;39.8
76046;BME280;64741;41.730;44.788;2023-08-07T17:30:54;983.5;;;33;39.9
76046;BME280;64741;41.730;44.788;2023-08-07T17:35:58;983.5;;;33;40
76046;BME280;64741;41.730;44.788;2023-08-07T17:40:58;983.6;;;32.9;40.2
76046;BME280;64741;41.730;44.788;2023-08-07T17:45:58;983.6;;;32.9;40.5
76046;BME280;64741;41.730;44.788;2023-08-07T17:50:52;983.7;;;32.9;40.6
76046;BME280;64741;41.730;44.788;2023-08-07T17:55:54;983.8;;;32.9;40.7
76046;BME280;64741;41.730;44.788;2023-08-07T18:00:54;983.9;;;32.9;40.9
76046;BME280;64741;41.730;44.788;2023-08-07T18:05:54;983.9;;;32.9;40.9
76046;BME280;64741;41.730;44.788;2023-08-07T18:10:58;984;;;32.8;41.1
76046;BME280;64741;41.730;44.788;2023-08-07T18:15:52;984;;;32.8;41.1
76046;BME280;64741;41.730;44.788;2023-08-07T18:20:58;984;;;32.8;41.1
76046;BME280;64741;41.730;44.788;2023-08-07T18:25:54;984.1;;;32.8;41.2
76046;BME280;64741;41.730;44.788;2023-08-07T18:30:52;984.1;;;32.8;41.2
76046;BME280;64741;41.730;44.788;2023-08-07T18:35:58;984.1;;;32.8;41.1
76046;BME280;64741;41.730;44.788;2023-08-07T18:40:54;984.2;;;32.8;41.2
76046;BME280;64741;41.730;44.788;2023-08-07T18:45:58;984.2;;;32.8;41.2
76046;BME280;64741;41.730;44.788;2023-08-07T18:50:34;984.2;;;32.8;41.4
76046;BME280;64741;41.730;44.788;2023-08-07T18:55:52;984.3;;;32.8;41.4
76046;BME280;64741;41.730;44.788;2023-08-07T19:00:38;984.3;;;32.8;41.2
76046;BME280;64741;41.730;44.788;2023-08-07T19:05:52;984.3;;;32.7;41.3
76046;BME280;64741;41.730;44.788;2023-08-07T19:10:58;984.3;;;32.7;41.3
76046;BME280;64741;41.730;44.788;2023-08-07T19:15:58;984.4;;;32.7;41.3
76046;BME280;64741;41.730;44.788;2023-08-07T19:20:50;984.4;;;32.7;41.3
76046;BME280;64741;41.730;44.788;2023-08-07T19:25:52;984.4;;;32.7;41.3
76046;BME280;64741;41.730;44.788;2023-08-07T19:30:58;984.3;;;32.7;41.4
76046;BME280;64741;41.730;44.788;2023-08-07T19:35:16;984.3;;;32.7;41.4
76046;BME280;64741;41.730;44.788;2023-08-07T19:40:48;984.4;;;32.7;41.4
76046;BME280;64741;41.730;44.788;2023-08-07T19:45:54;984.6;;;32.7;41.5
76046;BME280;64741;41.730;44.788;2023-08-07T19:50:58;984.7;;;32.7;41.5
76046;BME280;64741;41.730;44.788;2023-08-07T19:55:58;984.7;;;32.7;41.5
76046;BME280;64741;41.730;44.788;2023-08-07T20:00:52;984.7;;;32.7;41.5
76046;BME280;64741;41.730;44.788;2023-08-07T20:05:58;984.8;;;32.7;41.8
76046;BME280;64741;41.730;44.788;2023-08-07T20:10:58;984.9;;;32.6;42
76046;BME280;64741;41.730;44.788;2023-08-07T20:15:28;984.9;;;32.6;42
76046;BME280;64741;41.730;44.788;2023-08-07T20:20:48;984.8;;;32.6;42
76046;BME280;64741;41.730;44.788;2023-08-07T20:25:52;984.8;;;32.5;42.1
76046;BME280;64741;41.730;44.788;2023-08-07T20:30:58;984.7;;;32.5;42.1
76046;BME280;64741;41.730;44.788;2023-08-07T20:35:54;984.7;;;32.5;42.2
76046;BME280;64741;41.730;44.788;2023-08-07T20:40:58;984.7;;;32.5;42.3
76046;BME280;64741;41.730;44.788;2023-08-07T20:45:52;984.7;;;32.5;42.3
76046;BME280;64741;41.730;44.788;2023-08-07T20:50:58;984.8;;;32.5;42.3
76046;BME280;64741;41.730;44.788;2023-08-07T20:55:54;984.8;;;32.5;42.2
76046;BME280;64741;41.730;44.788;2023-08-07T21:00:52;984.7;;;32.5;42.3
76046;BME280;64741;41.730;44.788;2023-08-07T21:05:58;984.8;;;32.5;42.5
76046;BME280;64741;41.730;44.788;2023-08-07T21:10:58;984.9;;;32.5;42.7
76046;BME280;64741;41.730;44.788;2023-08-07T21:15:58;984.9;;;32.4;42.6
76046;BME280;64741;41.730;44.788;2023-08-07T21:20:54;984.9;;;32.4;42.7
76046;BME280;64741;41.730;44.788;2023-08-07T21:25:58;984.9;;;32.4;42.8
76046;BME280;64741;41.730;44.788;2023-08-07T21:30:58;985;;;32.4;42.7
76046;BME280;64741;41.730;44.788;2023-08-07T21:35:52;985;;;32.4;42.9
76046;BME280;64741;41.730;44.788;2023-08-07T21:40:54;985;;;32.4;42.9
76046;BME280;64741;41.730;44.788;2023-08-07T21:45:58;985;;;32.4;42.9
76046;BME280;64741;41.730;44.788;2023-08-07T21:50:56;985;;;32.4;42.9
76046;BME280;64741;41.730;44.788;2023-08-07T21:55:54;985;;;32.4;43.1
76046;BME280;64741;41.730;44.788;2023-08-07T22:00:58;985.1;;;32.3;43.1
76046;BME280;64741;41.730;44.788;2023-08-07T22:05:58;985.1;;;32.3;43.2
76046;BME280;64741;41.730;44.788;2023-08-07T22:10:58;985.1;;;32.3;43.2
76046;BME280;64741;41.730;44.788;2023-08-07T22:15:54;985.1;;;32.3;43.3
76046;BME280;64741;41.730;44.788;2023-08-07T22:20:54;985.2;;;32.3;43.4
76046;BME280;64741;41.730;44.788;2023-08-07T22:25:44;985.2;;;32.3;43.4
76046;BME280;64741;41.730;44.788;2023-08-07T22:30:54;985.3;;;32.2;43.7
76046;BME280;64741;41.730;44.788;2023-08-07T22:35:58;985.3;;;32.2;43.7
76046;BME280;64741;41.730;44.788;2023-08-07T22:40:52;985.3;;;32.2;43.7
76046;BME280;64741;41.730;44.788;2023-08-07T22:45:58;985.4;;;32.2;43.8
76046;BME280;64741;41.730;44.788;2023-08-07T22:50:54;985.5;;;32.2;43.9
76046;BME280;64741;41.730;44.788;2023-08-07T22:55:52;985.5;;;32.2;44.1
76046;BME280;64741;41.730;44.788;2023-08-07T23:00:58;985.5;;;32.2;44.2
76046;BME280;64741;41.730;44.788;2023-08-07T23:05:54;985.4;;;32.1;44.3
76046;BME280;64741;41.730;44.788;2023-08-07T23:10:58;985.5;;;32.1;44.3
76046;BME280;64741;41.730;44.788;2023-08-07T23:15:52;985.5;;;32.1;44.3
76046;BME280;64741;41.730;44.788;2023-08-07T23:20:44;985.5;;;32.1;44.4
76046;BME280;64741;41.730;44.788;2023-08-07T23:25:52;985.5;;;32.1;44.4
76046;BME280;64741;41.730;44.788;2023-08-07T23:30:52;985.5;;;32.1;44.3
76046;BME280;64741;41.730;44.788;2023-08-07T23:35:58;985.6;;;32.1;44.3
76046;BME280;64741;41.730;44.788;2023-08-07T23:40:58;985.6;;;32.2;44.3
76046;BME280;64741;41.730;44.788;2023-08-07T23:45:59;985.7;;;32.1;44.5
76046;BME280;64741;41.730;44.788;2023-08-07T23:50:52;985.7;;;32.1;44.5
76046;BME280;64741;41.730;44.788;2023-08-07T23:55:58;985.7;;;32.1;44.5
